Booker, TX

12:49 PM CST on March 05, 2015 (GMT -0600)
Gage | Change Station
CLOSE
Current Station
Airport
Location: Gage,
Elevation: 2195 ft
Nearby Weather Stations

Elev 2195 ft 36.30 °N, 99.78 °W | Updated 56 minutes ago

Clear
Clear
40 °F
Feels Like 32 °F
N
13
Wind Variable Wind from SW
Gusts 22 mph

Today
High -- | Low -- °F
--% Chance of Precip.
Yesterday
High -- | Low -- °F
Precip. -- in
7:07 AM 6:40 PM
Full, 100% visible
Pressure 30.53 in
Visibility 10.0 miles
Clouds Clear
Windchill 32 °F
Dew Point 13 °F
Humidity 33%
Rainfall 0.00 in
Snow Depth Not available.
UV 7 out of 12
Pollen 1.50 out of 12
Air Quality Not available.
Flu Activity Not available.
METAR KGAG 051753Z AUTO 23011G19KT 10SM CLR 04/M11 A3047 RMK AO2 SLP337 T00441106 10050 21111 58009

More Conditions Fewer Conditions

Pressure 30.53 in
Visibility 10.0 miles
Clouds Clear
Windchill 32 °F
Dew Point 13 °F
Humidity 33%
Rainfall 0.00 in
Snow Depth Not available.
UV 7 out of 12
Pollen 1.50 out of 12
Air Quality Not available.
Flu Activity Not available.
METAR KGAG 051753Z AUTO 23011G19KT 10SM CLR 04/M11 A3047 RMK AO2 SLP337 T00441106 10050 21111 58009

More Conditions Fewer Conditions

10-Day Weather Forecast

Almanac

Astronomy

Mar. 05, 2015 Rise Set
Actual Time
Civil Twilight
Nautical Twilight
Astronomical Twilight
Moon
Length of Visible Light
Length of Day
Tomorrow will be .
, % of the Moon is Illuminated

Today's Extremes

State Highs State Lows

Community

WunderPhotos

Upload Photos

1,802,905 photos uploaded!

WunderBlogs® & News

Nearby

Air Quality

  Air Quality AQ Index Pollutant
Not available.

Snow Depth

Station Depth Elevation

Earthquake Activity

City Distance Mag. Time & Date
Minimum magnitude displayed is 2.5.

Coastal Water Temperatures

Place Temperature

Nearby Weather Stations